KCCA/CCA METAR and TAF weather

Enter ICAO airport designator
Station Type Date Time Source
KCCA METAR 2019/06/18 14:35 UTC NOAA

KCCA 181435Z AUTO 00000KT 10SM BKN006 BKN060 23/21 A2993 RMK AO2


Station Type Date Time Source
KCCA Decoded METAR 2019/06/18 14:35 UTC NOAA

Station name not available
Jun 18, 2019 - 10:35 AM EDT / 2019.06.18 1435 UTC
Wind: Calm:0
Visibility: 10 mile(s):0
Sky conditions: mostly cloudy
Temperature: 73 F (23 C)
Dew Point: 69 F (21 C)
Relative Humidity: 88%
Pressure (altimeter): 29.93 in. Hg (1013 hPa)
ob: KCCA 181435Z AUTO 00000KT 10SM BKN006 BKN060 23/21 A2993 RMK AO2
cycle: 14

Station Type Date Time Source
KCCA TAF UTC NOAA

Error!

Example: see airport list